Time;durP1;ratioP1;P1;durP2;ratioP2;P2;SDS_P1;SDS_P2;PMS_P1;PMS_P2;Temp;Humidity;BMP_temperature;BMP_pressure;BME280_temperature;BME280_humidity;BME280_pressure;Samples;Min_cycle;Max_cycle;Signal;HPM_P1;HPM_P2
2021/09/02 00:01:26;;;;;;;7.37;4.93;;;13.70;96.10;;;;;;4992023;28;20222;-69
2021/09/02 00:03:51;;;;;;;8.90;5.27;;;13.60;96.20;;;;;;4993052;28;20046;-69
2021/09/02 00:06:17;;;;;;;6.93;4.97;;;13.60;96.10;;;;;;4992658;28;20467;-70
2021/09/02 00:08:42;;;;;;;6.47;4.90;;;13.60;96.20;;;;;;4992184;28;20463;-69
2021/09/02 00:11:08;;;;;;;10.10;5.70;;;13.50;96.20;;;;;;4992482;28;20049;-69
2021/09/02 00:13:34;;;;;;;9.73;5.73;;;13.40;96.20;;;;;;4992802;28;20483;-70
2021/09/02 00:16:01;;;;;;;8.80;5.50;;;13.40;96.30;;;;;;4990595;28;20061;-69
2021/09/02 00:18:27;;;;;;;9.63;6.23;;;13.30;96.40;;;;;;4992355;28;20133;-69
2021/09/02 00:20:52;;;;;;;9.80;5.73;;;13.30;96.50;;;;;;4992617;28;20407;-69
2021/09/02 00:23:18;;;;;;;8.90;5.57;;;13.30;96.50;;;;;;4990237;28;20140;-69
2021/09/02 00:25:44;;;;;;;10.07;5.97;;;13.30;96.60;;;;;;4992646;28;20121;-69
2021/09/02 00:28:09;;;;;;;8.43;6.00;;;13.20;96.60;;;;;;4991369;28;20047;-69
2021/09/02 00:30:35;;;;;;;10.73;6.33;;;13.20;97.00;;;;;;4990316;28;20109;-69
2021/09/02 00:33:00;;;;;;;9.77;6.40;;;13.20;96.60;;;;;;4992551;28;20053;-69
2021/09/02 00:35:26;;;;;;;7.67;4.93;;;13.20;96.60;;;;;;4992203;28;20076;-69
2021/09/02 00:37:52;;;;;;;7.97;5.67;;;13.20;96.70;;;;;;4991675;28;20542;-69
2021/09/02 00:40:18;;;;;;;8.30;5.30;;;13.20;96.70;;;;;;4990492;28;20043;-69
2021/09/02 00:42:43;;;;;;;11.27;6.27;;;13.20;96.70;;;;;;4992472;28;20061;-69
2021/09/02 00:45:09;;;;;;;9.53;5.40;;;13.20;96.80;;;;;;4991471;28;20491;-69
2021/09/02 00:47:35;;;;;;;8.93;5.87;;;13.20;96.80;;;;;;4992586;28;20093;-69
2021/09/02 00:50:00;;;;;;;7.67;4.70;;;13.20;96.80;;;;;;4992359;28;20101;-69
2021/09/02 00:52:30;;;;;;;7.03;4.40;;;13.20;96.80;;;;;;4989958;28;20065;-69
2021/09/02 00:55:00;;;;;;;10.23;5.60;;;13.20;96.80;;;;;;4992183;28;20050;-69
2021/09/02 00:57:28;;;;;;;6.50;4.33;;;13.20;96.80;;;;;;4991646;28;20043;-69
2021/09/02 00:59:55;;;;;;;10.40;5.30;;;13.10;96.80;;;;;;4992316;28;20074;-69
2021/09/02 01:02:23;;;;;;;10.63;5.67;;;13.10;96.80;;;;;;4991863;28;20100;-69
2021/09/02 01:04:51;;;;;;;8.40;5.40;;;13.10;96.80;;;;;;4991885;28;20042;-69
2021/09/02 01:07:18;;;;;;;9.43;5.83;;;13.10;96.90;;;;;;4991840;28;20407;-68
2021/09/02 01:09:45;;;;;;;8.83;5.30;;;13.10;96.90;;;;;;4990937;28;20061;-69
2021/09/02 01:12:37;;;;;;;8.00;5.50;;;13.10;97.30;;;;;;4991227;28;20089;-69
2021/09/02 01:15:08;;;;;;;11.83;6.13;;;13.10;96.80;;;;;;4991028;28;20115;-69
2021/09/02 01:17:34;;;;;;;9.83;5.87;;;13.10;96.90;;;;;;4992380;28;20042;-69
2021/09/02 01:20:01;;;;;;;10.27;6.00;;;13.00;96.90;;;;;;4990131;28;20490;-70
2021/09/02 01:22:28;;;;;;;10.40;5.73;;;13.00;96.90;;;;;;4991998;28;20942;-69
2021/09/02 01:25:05;;;;;;;9.13;6.43;;;13.10;97.00;;;;;;4992181;28;20074;-69
2021/09/02 01:27:31;;;;;;;13.50;6.87;;;13.00;96.90;;;;;;4989734;28;20050;-69
2021/09/02 01:29:59;;;;;;;9.63;6.63;;;13.00;97.00;;;;;;4992137;28;20387;-69
2021/09/02 01:32:32;;;;;;;7.67;6.07;;;13.00;97.00;;;;;;4991117;28;20545;-69
2021/09/02 01:34:59;;;;;;;10.37;6.10;;;13.00;97.00;;;;;;4991897;28;20058;-69
2021/09/02 01:37:26;;;;;;;10.40;6.67;;;13.00;97.00;;;;;;4990436;28;20479;-69
2021/09/02 01:39:52;;;;;;;8.77;6.57;;;13.00;97.40;;;;;;4991156;28;20046;-69
2021/09/02 01:42:18;;;;;;;10.07;6.37;;;13.00;97.00;;;;;;4990225;28;20050;-69
2021/09/02 01:44:44;;;;;;;11.37;7.07;;;13.00;97.10;;;;;;4992075;28;20142;-69
2021/09/02 01:47:25;;;;;;;11.20;6.07;;;13.00;97.10;;;;;;4990752;28;20133;-70
2021/09/02 01:49:51;;;;;;;8.40;6.47;;;12.90;97.00;;;;;;4991958;28;20506;-69
2021/09/02 01:52:19;;;;;;;10.13;6.53;;;12.90;97.10;;;;;;4992545;28;20041;-69
2021/09/02 01:54:45;;;;;;;10.10;6.70;;;12.80;97.10;;;;;;4994549;28;20050;-69
2021/09/02 01:57:11;;;;;;;10.73;7.17;;;12.90;97.10;;;;;;4993711;28;20388;-69
2021/09/02 01:59:36;;;;;;;9.87;6.80;;;12.80;97.20;;;;;;4995293;28;20077;-69
2021/09/02 02:02:03;;;;;;;9.03;6.40;;;12.80;97.20;;;;;;4993148;28;20045;-69
2021/09/02 02:04:28;;;;;;;12.63;7.13;;;12.90;97.30;;;;;;4993855;28;20411;-69
2021/09/02 02:06:54;;;;;;;10.13;6.63;;;12.90;97.30;;;;;;4995018;28;20081;-69
2021/09/02 02:09:19;;;;;;;10.63;7.10;;;12.90;97.30;;;;;;4992999;28;20072;-69
2021/09/02 02:11:45;;;;;;;10.07;6.80;;;12.90;97.30;;;;;;4993741;28;20053;-69
2021/09/02 02:14:11;;;;;;;10.47;6.20;;;12.90;97.20;;;;;;4994792;28;20042;-69
2021/09/02 02:16:37;;;;;;;12.73;7.27;;;12.90;97.20;;;;;;4994684;28;20046;-69
2021/09/02 02:19:02;;;;;;;13.50;7.57;;;12.90;97.20;;;;;;4995049;28;20133;-69
2021/09/02 02:21:28;;;;;;;13.33;7.90;;;12.90;97.30;;;;;;4994619;28;20049;-69
2021/09/02 02:23:54;;;;;;;17.70;7.53;;;12.90;97.30;;;;;;4994418;28;20046;-69
2021/09/02 02:26:19;;;;;;;13.83;7.90;;;12.90;97.30;;;;;;4993873;28;20096;-69
2021/09/02 02:28:45;;;;;;;13.77;7.20;;;12.80;97.30;;;;;;4994009;28;20117;-69
2021/09/02 02:31:10;;;;;;;14.90;7.73;;;12.80;97.30;;;;;;4993243;28;20076;-69
2021/09/02 02:33:36;;;;;;;14.17;8.17;;;12.80;97.40;;;;;;4994651;28;20089;-69
2021/09/02 02:36:01;;;;;;;17.40;8.20;;;12.80;97.30;;;;;;4994043;28;20057;-69
2021/09/02 02:38:27;;;;;;;17.47;7.40;;;12.80;97.30;;;;;;4994436;28;20706;-69
2021/09/02 02:40:53;;;;;;;12.40;6.83;;;12.80;97.30;;;;;;4994634;28;20035;-69
2021/09/02 02:43:18;;;;;;;11.37;6.40;;;12.80;97.30;;;;;;4993273;28;20085;-69
2021/09/02 02:45:44;;;;;;;9.83;6.07;;;12.70;97.30;;;;;;4994419;28;20042;-69
2021/09/02 02:48:09;;;;;;;13.57;6.77;;;12.80;97.30;;;;;;4993141;28;20050;-69
2021/09/02 02:50:35;;;;;;;16.50;6.83;;;12.70;97.20;;;;;;4993837;28;20467;-69
2021/09/02 02:53:01;;;;;;;13.93;6.13;;;12.70;97.20;;;;;;4994232;28;20046;-69
2021/09/02 02:55:26;;;;;;;9.50;5.87;;;12.70;97.20;;;;;;4992655;28;20137;-69
2021/09/02 02:57:54;;;;;;;10.73;6.50;;;12.70;97.20;;;;;;4992280;28;20082;-69
2021/09/02 03:00:19;;;;;;;11.87;5.77;;;12.70;97.10;;;;;;4993825;28;20520;-69
2021/09/02 03:02:45;;;;;;;9.60;6.00;;;12.70;97.10;;;;;;4993545;28;20121;-69
2021/09/02 03:05:10;;;;;;;10.63;6.30;;;12.60;97.00;;;;;;4992175;28;20046;-69
2021/09/02 03:07:36;;;;;;;12.07;6.57;;;12.60;96.90;;;;;;4992761;28;20058;-69
2021/09/02 03:10:07;;;;;;;11.10;7.20;;;12.60;96.90;;;;;;4992823;28;20495;-69
2021/09/02 03:12:34;;;;;;;14.23;7.47;;;12.60;97.00;;;;;;4993455;28;20046;-69
2021/09/02 03:15:00;;;;;;;11.20;6.10;;;12.60;97.00;;;;;;4993732;28;20405;-69
2021/09/02 03:17:26;;;;;;;11.97;6.53;;;12.60;97.10;;;;;;4993404;28;20053;-69
2021/09/02 03:19:52;;;;;;;11.37;6.80;;;12.60;97.10;;;;;;4991898;28;20042;-69
2021/09/02 03:22:18;;;;;;;13.53;8.10;;;12.60;97.20;;;;;;4993592;28;20129;-69
2021/09/02 03:24:43;;;;;;;13.27;7.13;;;12.60;97.20;;;;;;4993788;28;20054;-69
2021/09/02 03:27:09;;;;;;;11.53;6.70;;;12.60;97.30;;;;;;4991470;28;20046;-69
2021/09/02 03:29:35;;;;;;;11.47;6.53;;;12.60;97.30;;;;;;4993678;28;20062;-69
2021/09/02 03:32:00;;;;;;;17.63;7.73;;;12.70;97.30;;;;;;4992937;28;20125;-69
2021/09/02 03:34:26;;;;;;;14.43;8.07;;;12.70;97.30;;;;;;4992893;28;20120;-69
2021/09/02 03:36:52;;;;;;;13.40;6.97;;;12.70;97.40;;;;;;4993307;28;20046;-69
2021/09/02 03:39:18;;;;;;;9.60;5.70;;;12.80;97.40;;;;;;4992195;28;20050;-70
2021/09/02 03:41:44;;;;;;;10.60;6.23;;;12.80;97.40;;;;;;4993599;28;20050;-69
2021/09/02 03:44:10;;;;;;;9.53;5.93;;;12.80;97.40;;;;;;4993032;28;20104;-69
2021/09/02 03:46:36;;;;;;;10.47;5.40;;;12.80;97.80;;;;;;4992508;28;20042;-69
2021/09/02 03:49:02;;;;;;;8.20;6.40;;;12.80;97.30;;;;;;4993146;28;20053;-69
2021/09/02 03:51:28;;;;;;;10.20;5.17;;;12.80;97.30;;;;;;4993095;28;20068;-69
2021/09/02 03:53:53;;;;;;;12.77;6.20;;;12.90;97.30;;;;;;4992253;28;20043;-69
2021/09/02 03:56:19;;;;;;;8.47;5.67;;;12.90;97.20;;;;;;4992821;28;20047;-69
2021/09/02 03:58:44;;;;;;;12.90;6.23;;;12.90;97.20;;;;;;4992898;28;20376;-69
2021/09/02 04:01:10;;;;;;;9.17;5.37;;;12.90;97.20;;;;;;4992028;28;20052;-69
2021/09/02 04:03:36;;;;;;;10.67;6.00;;;12.90;97.20;;;;;;4993022;28;20073;-69
2021/09/02 04:06:01;;;;;;;10.63;6.70;;;12.90;97.30;;;;;;4992772;28;20104;-69
2021/09/02 04:08:27;;;;;;;11.27;6.50;;;13.00;97.30;;;;;;4992005;28;20056;-69
2021/09/02 04:10:53;;;;;;;11.17;7.07;;;13.00;97.30;;;;;;4992799;28;20054;-69
2021/09/02 04:13:18;;;;;;;13.83;8.13;;;13.10;97.40;;;;;;4992431;28;20136;-69
2021/09/02 04:15:44;;;;;;;16.40;7.80;;;13.10;97.40;;;;;;4991265;28;20062;-69
2021/09/02 04:18:09;;;;;;;10.83;6.27;;;13.10;97.30;;;;;;4992255;28;20058;-69
2021/09/02 04:20:35;;;;;;;10.67;5.97;;;13.20;97.30;;;;;;4992574;28;20061;-69
2021/09/02 04:23:00;;;;;;;9.97;6.50;;;13.20;97.30;;;;;;4992106;28;20046;-69
2021/09/02 04:25:26;;;;;;;10.83;6.00;;;13.20;97.20;;;;;;4990870;28;20130;-69
2021/09/02 04:27:52;;;;;;;16.63;6.93;;;13.20;97.20;;;;;;4992799;28;20419;-69
2021/09/02 04:30:18;;;;;;;15.50;7.40;;;13.20;97.20;;;;;;4991526;28;20046;-69
2021/09/02 04:32:43;;;;;;;12.70;7.23;;;13.20;97.30;;;;;;4991113;28;20443;-69
2021/09/02 04:35:11;;;;;;;15.20;8.10;;;13.20;97.30;;;;;;4990812;28;20058;-69
2021/09/02 04:37:38;;;;;;;17.13;7.63;;;13.20;97.30;;;;;;4990351;28;20057;-69
2021/09/02 04:40:05;;;;;;;17.03;7.30;;;13.20;97.40;;;;;;4991429;28;20395;-69
2021/09/02 04:42:31;;;;;;;14.17;8.33;;;13.30;97.40;;;;;;4990026;28;20081;-69
2021/09/02 04:44:57;;;;;;;16.23;8.30;;;13.30;97.40;;;;;;4992523;28;20069;-69
2021/09/02 04:47:22;;;;;;;16.87;8.97;;;13.30;97.40;;;;;;4991926;28;20048;-69
2021/09/02 04:49:48;;;;;;;18.33;9.20;;;13.30;97.40;;;;;;4990603;28;20056;-69
2021/09/02 04:52:13;;;;;;;17.53;9.03;;;13.40;97.40;;;;;;4992249;28;20050;-69
2021/09/02 04:54:39;;;;;;;16.50;8.97;;;13.40;97.40;;;;;;4992202;28;20049;-69
2021/09/02 04:57:05;;;;;;;20.63;9.10;;;13.40;97.30;;;;;;4991366;28;20049;-69
2021/09/02 04:59:30;;;;;;;15.73;8.13;;;13.50;97.40;;;;;;4991526;28;20046;-69
2021/09/02 05:01:56;;;;;;;15.50;8.47;;;13.40;97.30;;;;;;4991029;28;20498;-69
2021/09/02 05:04:21;;;;;;;16.17;7.83;;;13.40;97.30;;;;;;4991123;28;20073;-69
2021/09/02 05:06:47;;;;;;;14.60;8.53;;;13.40;97.40;;;;;;4990717;28;20054;-68
2021/09/02 05:09:12;;;;;;;16.53;8.50;;;13.50;97.50;;;;;;4990426;28;20402;-69
2021/09/02 05:11:38;;;;;;;15.40;8.77;;;13.50;97.60;;;;;;4991617;28;20546;-69
2021/09/02 05:14:03;;;;;;;17.80;9.60;;;13.50;97.60;;;;;;4990796;28;20514;-69
2021/09/02 05:16:29;;;;;;;15.50;8.83;;;13.50;97.60;;;;;;4991642;28;20365;-69
2021/09/02 05:18:54;;;;;;;15.20;9.43;;;13.50;97.60;;;;;;4990126;28;20046;-69
2021/09/02 05:21:20;;;;;;;16.00;9.77;;;13.60;97.60;;;;;;4990835;28;20046;-68
2021/09/02 05:23:45;;;;;;;16.30;8.53;;;13.60;97.60;;;;;;4990477;28;20053;-69
2021/09/02 05:26:11;;;;;;;15.07;9.50;;;13.60;97.60;;;;;;4991170;28;20125;-68
2021/09/02 05:28:36;;;;;;;17.50;10.27;;;13.60;97.60;;;;;;4994790;28;20141;-69
2021/09/02 05:31:02;;;;;;;17.63;9.40;;;13.60;97.50;;;;;;4995283;28;20108;-69
2021/09/02 05:33:28;;;;;;;18.53;9.67;;;13.60;97.60;;;;;;4993710;28;20058;-68
2021/09/02 05:35:53;;;;;;;16.70;8.73;;;13.70;97.60;;;;;;4995164;28;20042;-68
2021/09/02 05:38:19;;;;;;;18.77;8.57;;;13.70;97.60;;;;;;4994358;28;20069;-68
2021/09/02 05:40:45;;;;;;;14.87;7.87;;;13.70;97.60;;;;;;4994014;28;20046;-68
2021/09/02 05:43:10;;;;;;;14.03;9.10;;;13.80;97.60;;;;;;4994618;28;20042;-68
2021/09/02 05:45:36;;;;;;;17.23;8.57;;;13.80;97.60;;;;;;4994024;28;20127;-70
2021/09/02 05:48:03;;;;;;;13.07;8.10;;;13.90;97.60;;;;;;4994468;28;20513;-69
2021/09/02 05:50:29;;;;;;;12.97;7.83;;;13.90;97.60;;;;;;4994529;28;20112;-69
2021/09/02 05:52:54;;;;;;;16.50;8.80;;;13.90;97.60;;;;;;4993891;28;20747;-69
2021/09/02 05:55:21;;;;;;;16.40;8.67;;;14.00;97.60;;;;;;4993390;28;20089;-69
2021/09/02 05:57:46;;;;;;;16.23;8.63;;;14.00;97.60;;;;;;4993077;28;20057;-69
2021/09/02 06:00:13;;;;;;;13.97;9.07;;;14.00;97.50;;;;;;4992269;28;20464;-69
2021/09/02 06:02:38;;;;;;;14.67;9.10;;;14.00;97.50;;;;;;4993293;28;20053;-69
2021/09/02 06:05:06;;;;;;;18.10;9.60;;;14.00;97.60;;;;;;4994163;28;20049;-69
2021/09/02 06:07:32;;;;;;;15.50;9.50;;;14.10;97.60;;;;;;4993719;28;20077;-69
2021/09/02 06:09:57;;;;;;;16.33;9.23;;;14.10;97.50;;;;;;4992621;28;20070;-69
2021/09/02 06:12:23;;;;;;;15.10;9.40;;;14.10;97.90;;;;;;4993986;28;20046;-69
2021/09/02 06:14:48;;;;;;;17.27;9.30;;;14.10;97.50;;;;;;4991599;28;20046;-68
2021/09/02 06:17:14;;;;;;;17.27;9.27;;;14.20;97.50;;;;;;4993585;28;20447;-69
2021/09/02 06:19:40;;;;;;;21.17;9.50;;;14.20;97.50;;;;;;4993822;28;20042;-69
2021/09/02 06:22:05;;;;;;;15.97;9.37;;;14.30;97.50;;;;;;4993573;28;20046;-70
2021/09/02 06:24:31;;;;;;;16.00;8.97;;;14.30;97.50;;;;;;4993522;28;20042;-69
2021/09/02 06:26:57;;;;;;;15.07;9.17;;;14.40;97.50;;;;;;4993976;28;20176;-69
2021/09/02 06:29:22;;;;;;;17.07;10.10;;;14.30;97.50;;;;;;4992791;28;20073;-69
2021/09/02 06:31:48;;;;;;;18.27;9.57;;;14.40;97.50;;;;;;4992748;28;20047;-69
2021/09/02 06:34:14;;;;;;;16.93;9.33;;;14.40;97.50;;;;;;4993253;28;20070;-70
2021/09/02 06:36:39;;;;;;;18.03;10.07;;;14.50;97.50;;;;;;4991492;28;20051;-69
2021/09/02 06:39:05;;;;;;;21.03;10.53;;;14.50;97.50;;;;;;4992561;28;20069;-69
2021/09/02 06:41:32;;;;;;;23.07;10.47;;;14.50;97.40;;;;;;4993141;28;20355;-69
2021/09/02 06:43:58;;;;;;;19.53;10.40;;;14.50;97.40;;;;;;4992671;28;20049;-69
2021/09/02 06:46:23;;;;;;;16.03;9.90;;;14.60;97.40;;;;;;4992201;28;20080;-69
2021/09/02 06:48:49;;;;;;;13.20;9.10;;;14.60;97.40;;;;;;4993387;28;20042;-69
2021/09/02 06:51:14;;;;;;;18.83;10.33;;;14.60;97.40;;;;;;4991894;28;20042;-69
2021/09/02 06:53:40;;;;;;;15.10;8.93;;;14.60;97.40;;;;;;4993197;28;20046;-68
2021/09/02 06:56:05;;;;;;;16.97;10.00;;;14.70;97.80;;;;;;4992794;28;20093;-69
2021/09/02 06:58:31;;;;;;;18.03;9.97;;;14.70;97.30;;;;;;4992615;28;20093;-69
2021/09/02 07:00:57;;;;;;;24.47;10.07;;;14.70;97.30;;;;;;4993242;28;20050;-68
2021/09/02 07:03:22;;;;;;;16.93;9.73;;;14.70;97.30;;;;;;4990651;28;20058;-69
2021/09/02 07:05:48;;;;;;;15.73;10.47;;;14.80;97.30;;;;;;4993778;28;20081;-68
2021/09/02 07:08:16;;;;;;;17.10;9.50;;;14.80;97.30;;;;;;4990712;28;20392;-69
2021/09/02 07:10:41;;;;;;;21.67;10.50;;;14.80;97.30;;;;;;4991884;28;20122;-69
2021/09/02 07:13:07;;;;;;;19.90;10.30;;;14.90;97.30;;;;;;4993430;28;20132;-69
2021/09/02 07:15:33;;;;;;;14.17;8.37;;;14.90;97.20;;;;;;4993712;28;20104;-69
2021/09/02 07:17:59;;;;;;;17.80;9.80;;;15.00;97.20;;;;;;4992874;28;20077;-69
2021/09/02 07:20:24;;;;;;;17.80;10.40;;;15.00;97.20;;;;;;4993233;28;20464;-68
2021/09/02 07:22:50;;;;;;;23.00;9.93;;;15.00;97.20;;;;;;4993513;28;20076;-68
2021/09/02 07:25:15;;;;;;;16.93;10.07;;;15.10;97.20;;;;;;4992412;28;20120;-68
2021/09/02 07:27:41;;;;;;;16.23;9.47;;;15.10;97.20;;;;;;4993369;28;20108;-68
2021/09/02 07:30:07;;;;;;;19.40;10.23;;;15.10;97.10;;;;;;4993128;28;20062;-68
2021/09/02 07:32:33;;;;;;;17.73;9.80;;;15.20;97.60;;;;;;4992722;28;20049;-69
2021/09/02 07:34:58;;;;;;;15.83;8.77;;;15.20;97.10;;;;;;4993204;28;20510;-69
2021/09/02 07:37:24;;;;;;;18.53;10.37;;;15.20;97.10;;;;;;4992883;28;20403;-69
2021/09/02 07:39:50;;;;;;;18.37;10.17;;;15.30;97.10;;;;;;4992573;28;20456;-69
2021/09/02 07:42:15;;;;;;;16.97;9.70;;;15.30;97.10;;;;;;4993187;28;20053;-69
2021/09/02 07:44:41;;;;;;;16.27;9.17;;;15.40;97.20;;;;;;4991922;28;20050;-69
2021/09/02 07:47:06;;;;;;;14.97;9.13;;;15.40;97.20;;;;;;4992316;28;20050;-70
2021/09/02 07:49:32;;;;;;;18.23;9.50;;;15.50;97.10;;;;;;4993172;28;20049;-69
2021/09/02 07:51:57;;;;;;;13.87;7.53;;;15.50;96.90;;;;;;4993046;28;20050;-69
2021/09/02 07:54:23;;;;;;;17.07;9.20;;;15.50;96.90;;;;;;4992109;28;20133;-69
2021/09/02 07:56:49;;;;;;;19.23;9.07;;;15.60;96.80;;;;;;4992910;28;20071;-69
2021/09/02 07:59:16;;;;;;;14.43;9.30;;;15.60;96.80;;;;;;4991729;28;20054;-69
2021/09/02 08:01:41;;;;;;;15.13;8.97;;;15.70;96.70;;;;;;4991916;28;20042;-68
2021/09/02 08:04:07;;;;;;;16.43;8.97;;;15.70;96.70;;;;;;4992687;28;20526;-69
2021/09/02 08:06:32;;;;;;;16.90;8.50;;;15.80;96.70;;;;;;4991962;28;20038;-68
2021/09/02 08:08:58;;;;;;;19.23;8.73;;;15.80;96.60;;;;;;4992852;28;20058;-68
2021/09/02 08:11:27;;;;;;;15.93;8.87;;;15.90;96.40;;;;;;4992731;28;20424;-67
2021/09/02 08:13:54;;;;;;;18.50;8.07;;;15.90;96.30;;;;;;4991984;28;20038;-68
2021/09/02 08:16:22;;;;;;;19.10;8.57;;;16.00;96.20;;;;;;4991185;28;20126;-68
2021/09/02 08:18:47;;;;;;;14.27;8.83;;;16.10;96.20;;;;;;4990881;28;20467;-68
2021/09/02 08:21:15;;;;;;;15.90;8.23;;;16.10;96.10;;;;;;4974864;28;20129;-69
2021/09/02 08:23:41;;;;;;;17.03;8.27;;;16.10;96.10;;;;;;4991628;28;20050;-68
2021/09/02 08:26:07;;;;;;;14.27;8.03;;;16.20;95.90;;;;;;4992260;28;20124;-68
2021/09/02 08:28:32;;;;;;;15.57;8.47;;;16.20;95.70;;;;;;4991781;28;20050;-68
2021/09/02 08:30:58;;;;;;;13.97;8.07;;;16.30;95.60;;;;;;4992587;28;20093;-69
2021/09/02 08:33:23;;;;;;;16.10;8.20;;;16.30;95.50;;;;;;4990730;28;20054;-68
2021/09/02 08:35:51;;;;;;;16.17;7.47;;;16.30;95.50;;;;;;4991986;28;20046;-69
2021/09/02 08:38:23;;;;;;;14.47;7.93;;;16.40;95.40;;;;;;4992105;28;20050;-69
2021/09/02 08:40:48;;;;;;;15.17;7.73;;;16.40;95.10;;;;;;4992498;28;20085;-69
2021/09/02 08:43:16;;;;;;;19.47;8.97;;;16.40;95.00;;;;;;4991512;28;20046;-68
2021/09/02 08:45:41;;;;;;;17.90;8.47;;;16.50;95.00;;;;;;4992263;28;20408;-67
2021/09/02 08:48:10;;;;;;;17.73;7.40;;;16.50;94.80;;;;;;4992341;28;20128;-69
2021/09/02 08:50:39;;;;;;;;;;;16.50;94.60;;;;;;4992253;28;20073;-68
2021/09/02 08:53:05;;;;;;;14.93;6.43;;;16.50;94.30;;;;;;4992339;28;20271;-69
2021/09/02 08:55:31;;;;;;;17.77;6.53;;;16.60;94.50;;;;;;4991511;28;20069;-69
2021/09/02 08:57:57;;;;;;;14.90;7.23;;;16.60;94.00;;;;;;4990979;28;20380;-69
2021/09/02 09:00:25;;;;;;;14.40;6.60;;;16.60;93.70;;;;;;4991876;28;20054;-68
2021/09/02 09:03:05;;;;;;;13.27;5.50;;;16.70;93.50;;;;;;4993801;28;20058;-69
2021/09/02 09:05:32;;;;;;;14.70;6.47;;;16.80;93.20;;;;;;4996980;28;20047;-68
2021/09/02 09:07:59;;;;;;;17.07;6.67;;;16.90;93.10;;;;;;5000890;28;20037;-67
2021/09/02 09:10:27;;;;;;;12.33;5.80;;;16.90;92.70;;;;;;4994807;28;20047;-68
2021/09/02 09:13:08;;;;;;;15.73;6.03;;;16.90;92.70;;;;;;4995681;28;20038;-68
2021/09/02 09:15:37;;;;;;;14.10;6.22;;;17.00;92.50;;;;;;4995117;28;20120;-68
2021/09/02 09:18:17;;;;;;;17.37;6.70;;;17.00;92.60;;;;;;4992710;28;20165;-68
2021/09/02 09:20:44;;;;;;;14.87;5.17;;;17.10;92.20;;;;;;5002737;28;20049;-68
2021/09/02 09:23:11;;;;;;;14.10;5.93;;;17.10;92.10;;;;;;5001795;28;20026;-69
2021/09/02 09:25:36;;;;;;;11.60;5.40;;;17.20;92.00;;;;;;4994537;28;20074;-69
2021/09/02 09:28:03;;;;;;;15.77;5.87;;;17.20;91.90;;;;;;4995052;28;20144;-68
2021/09/02 09:30:30;;;;;;;15.43;5.70;;;17.20;91.70;;;;;;4994939;28;20038;-69
2021/09/02 09:32:56;;;;;;;13.93;5.63;;;17.30;91.50;;;;;;4991725;28;20471;-68
2021/09/02 09:35:32;;;;;;;15.03;5.70;;;17.20;91.50;;;;;;4994646;28;20058;-67
2021/09/02 09:38:18;;;;;;;16.83;5.90;;;17.40;91.30;;;;;;4992183;28;20470;-68
2021/09/02 09:40:47;;;;;;;14.67;5.80;;;17.40;91.00;;;;;;4992467;28;20041;-68
2021/09/02 09:43:24;;;;;;;16.90;6.23;;;17.40;91.00;;;;;;4994411;28;20128;-68
2021/09/02 09:45:57;;;;;;;13.23;5.50;;;17.40;90.80;;;;;;4993137;28;20373;-69
2021/09/02 09:48:22;;;;;;;16.47;5.63;;;17.40;91.10;;;;;;4993113;28;20101;-68
2021/09/02 09:51:18;;;;;;;15.63;5.43;;;17.50;90.60;;;;;;4994493;28;20443;-68
2021/09/02 09:53:51;;;;;;;15.63;5.43;;;17.50;90.30;;;;;;4985373;28;20134;-68
2021/09/02 09:56:20;;;;;;;12.23;5.37;;;17.60;90.30;;;;;;4992261;28;20064;-68
2021/09/02 09:58:46;;;;;;;10.03;4.40;;;17.60;90.10;;;;;;4993334;28;20046;-68
2021/09/02 10:01:13;;;;;;;16.67;5.07;;;17.60;89.90;;;;;;4994565;28;20050;-68
2021/09/02 10:03:39;;;;;;;17.83;5.63;;;17.60;89.10;;;;;;4995161;28;20054;-68
2021/09/02 10:06:11;;;;;;;15.80;5.80;;;17.60;88.60;;;;;;4994378;28;20038;-68
2021/09/02 10:08:39;;;;;;;11.07;5.07;;;17.60;88.40;;;;;;4995396;28;20049;-68
2021/09/02 10:11:11;;;;;;;13.10;4.60;;;17.60;88.50;;;;;;4995071;28;20447;-68
2021/09/02 10:13:37;;;;;;;12.00;5.00;;;17.60;87.80;;;;;;4991450;28;20066;-68
2021/09/02 10:16:05;;;;;;;11.93;5.23;;;17.60;87.80;;;;;;4993513;28;20077;-67
2021/09/02 10:18:33;;;;;;;10.40;4.30;;;17.70;87.40;;;;;;4994261;28;20046;-68
2021/09/02 10:21:05;;;;;;;9.90;4.53;;;17.70;86.40;;;;;;4992729;28;20046;-68
2021/09/02 10:23:31;;;;;;;13.83;4.87;;;17.80;86.00;;;;;;4994439;28;20054;-69
2021/09/02 10:25:57;;;;;;;13.00;4.70;;;17.80;86.20;;;;;;4994392;28;20049;-69
2021/09/02 10:28:23;;;;;;;12.30;4.80;;;17.90;85.80;;;;;;4992412;28;20121;-69
2021/09/02 10:30:51;;;;;;;8.73;4.23;;;17.90;84.70;;;;;;4993010;28;20050;-69
2021/09/02 10:33:36;;;;;;;9.83;4.33;;;17.90;84.80;;;;;;4994141;28;20198;-69
2021/09/02 10:36:21;;;;;;;11.73;5.17;;;17.90;84.70;;;;;;4991901;28;20460;-70
2021/09/02 10:38:55;;;;;;;10.43;4.73;;;18.00;84.80;;;;;;4992559;28;20392;-70
2021/09/02 10:41:36;;;;;;;10.43;5.00;;;18.10;85.10;;;;;;4989340;28;20372;-70
2021/09/02 10:44:06;;;;;;;9.80;4.07;;;18.10;82.90;;;;;;4991384;28;20419;-70
2021/09/02 10:46:35;;;;;;;11.43;5.07;;;18.20;83.60;;;;;;4993800;28;20399;-70
2021/09/02 10:49:36;;;;;;;12.43;5.30;;;18.20;82.50;;;;;;4990466;28;20411;-70
2021/09/02 10:52:04;;;;;;;10.60;5.17;;;18.20;81.90;;;;;;4970792;28;20057;-70
2021/09/02 10:54:37;;;;;;;11.63;4.87;;;18.20;81.70;;;;;;4973116;28;20404;-70
2021/09/02 10:57:11;;;;;;;11.37;5.70;;;18.30;81.90;;;;;;4974321;28;20054;-69
2021/09/02 10:59:50;;;;;;;10.60;4.73;;;18.30;81.20;;;;;;4973449;28;20065;-70
2021/09/02 11:02:16;;;;;;;11.90;4.73;;;18.30;80.80;;;;;;4972651;28;20053;-71
2021/09/02 11:05:01;;;;;;;11.93;4.90;;;18.40;81.40;;;;;;4974285;28;20137;-70
2021/09/02 11:07:44;;;;;;;13.43;5.87;;;18.40;81.40;;;;;;4974437;28;20054;-68
2021/09/02 11:10:18;;;;;;;12.20;5.37;;;18.40;82.00;;;;;;4972070;28;20125;-70
2021/09/02 11:12:44;;;;;;;11.70;5.00;;;18.30;82.40;;;;;;4973206;28;20043;-69
2021/09/02 11:15:19;;;;;;;10.67;5.00;;;18.30;82.90;;;;;;4974679;28;20402;-68
2021/09/02 11:18:03;;;;;;;9.27;4.77;;;18.30;83.20;;;;;;4973971;28;20555;-68
2021/09/02 11:20:31;;;;;;;12.47;4.50;;;18.30;83.40;;;;;;4974372;28;20047;-67
2021/09/02 11:23:12;;;;;;;12.77;5.47;;;18.20;83.10;;;;;;4973822;28;20085;-70
2021/09/02 11:25:43;;;;;;;12.18;5.15;;;18.10;82.70;;;;;;4990577;28;20503;-69
2021/09/02 11:28:08;;;;;;;9.67;4.53;;;18.00;83.60;;;;;;4989751;28;20089;-69
2021/09/02 11:30:34;;;;;;;11.03;5.00;;;18.00;83.90;;;;;;4988070;28;20643;-70
2021/09/02 11:33:02;;;;;;;11.07;5.30;;;18.00;84.30;;;;;;4988575;28;20097;-69
2021/09/02 11:35:28;;;;;;;12.03;4.83;;;18.10;84.20;;;;;;4990074;28;20141;-69
2021/09/02 11:37:54;;;;;;;15.17;6.00;;;18.10;84.20;;;;;;4989044;28;20133;-70
2021/09/02 11:40:24;;;;;;;10.37;5.33;;;18.10;84.00;;;;;;4988150;28;20046;-69
2021/09/02 11:42:50;;;;;;;12.67;5.43;;;18.20;83.30;;;;;;4988873;28;20050;-69
2021/09/02 11:45:18;;;;;;;17.00;6.07;;;18.20;83.10;;;;;;4989634;28;20455;-70
2021/09/02 11:47:44;;;;;;;11.17;4.90;;;18.20;83.10;;;;;;4989695;28;20101;-71
2021/09/02 11:50:10;;;;;;;10.13;5.20;;;18.20;82.20;;;;;;4989784;28;20402;-68
2021/09/02 11:52:41;;;;;;;11.17;5.70;;;18.20;82.30;;;;;;4988527;28;20050;-68
2021/09/02 11:55:11;;;;;;;;;;;18.20;82.10;;;;;;4989308;28;20140;-68
2021/09/02 11:57:37;;;;;;;11.17;5.13;;;18.20;82.40;;;;;;4987534;28;19925;-68
2021/09/02 12:00:03;;;;;;;12.23;5.87;;;18.20;82.80;;;;;;4988790;28;20048;-68
2021/09/02 12:02:28;;;;;;;11.60;5.83;;;18.20;83.00;;;;;;4988394;28;20046;-69
2021/09/02 12:04:54;;;;;;;12.97;5.70;;;18.20;82.60;;;;;;4988210;28;20042;-68
2021/09/02 12:07:20;;;;;;;10.37;6.23;;;18.20;81.90;;;;;;4987076;28;20133;-69
2021/09/02 12:09:48;;;;;;;14.33;6.67;;;18.10;81.50;;;;;;4988236;28;20461;-70
2021/09/02 12:12:29;;;;;;;14.07;6.00;;;18.20;82.00;;;;;;4988572;28;20567;-70
2021/09/02 12:14:55;;;;;;;9.52;5.78;;;18.20;82.50;;;;;;4989830;28;20618;-70
2021/09/02 12:17:31;;;;;;;11.53;5.93;;;18.20;82.90;;;;;;4988411;28;20041;-70
2021/09/02 12:20:03;;;;;;;12.47;5.33;;;18.30;83.00;;;;;;4987868;28;20124;-70
2021/09/02 12:22:37;;;;;;;12.13;5.70;;;18.30;82.90;;;;;;4988031;28;20042;-70
2021/09/02 12:25:15;;;;;;;11.60;5.83;;;18.30;82.90;;;;;;4988433;28;20042;-69
2021/09/02 12:27:54;;;;;;;13.67;6.17;;;18.30;83.10;;;;;;4986436;28;20038;-69
2021/09/02 12:30:41;;;;;;;12.20;5.57;;;18.30;83.00;;;;;;4986713;28;20348;-69
2021/09/02 12:33:15;;;;;;;11.43;5.20;;;18.30;82.40;;;;;;4989129;28;20354;-70
2021/09/02 12:35:42;;;;;;;10.63;4.97;;;18.30;82.30;;;;;;4987041;28;20133;-69
2021/09/02 12:38:09;;;;;;;11.13;5.07;;;18.30;82.20;;;;;;4970626;28;20148;-69
2021/09/02 12:40:35;;;;;;;12.43;5.73;;;18.30;82.70;;;;;;4988685;28;20137;-69